createdAt,value
2019-02-27T08:28:28.745Z,1892.00
2019-02-27T08:29:28.710Z,1900.00
2019-02-27T08:30:28.703Z,1908.00
2019-02-27T08:31:28.891Z,1916.00
2019-02-27T08:32:28.679Z,1928.00
2019-02-27T08:33:28.678Z,1936.00
2019-02-27T08:34:28.660Z,1944.00
2019-02-27T08:35:28.647Z,1952.00
2019-02-27T08:36:28.642Z,1960.00
2019-02-27T08:37:28.626Z,1968.00
2019-02-27T08:38:28.627Z,1972.00
2019-02-27T08:39:28.606Z,1980.00
2019-02-27T08:40:28.598Z,1988.00
2019-02-27T08:41:29.212Z,1996.00
2019-02-27T08:42:28.583Z,2000.00
2019-02-27T08:43:30.436Z,2008.00
2019-02-27T08:44:28.554Z,2016.00
2019-02-27T08:45:28.542Z,2020.00
2019-02-27T08:46:28.540Z,2028.00
2019-02-27T08:47:28.526Z,2036.00
2019-02-27T08:48:28.526Z,2040.00
2019-02-27T08:49:28.499Z,2048.00
2019-02-27T08:50:29.262Z,2056.00
2019-02-27T08:51:28.478Z,2060.00
2019-02-27T08:52:28.473Z,2068.00
2019-02-27T08:53:28.474Z,2072.00
2019-02-27T08:54:32.300Z,2076.00
2019-02-27T08:55:28.442Z,2080.00
2019-02-27T08:56:29.973Z,2088.00
2019-02-27T08:57:28.428Z,2096.00
2019-02-27T08:58:29.671Z,2104.00
2019-02-27T08:59:28.404Z,2104.00
2019-02-27T09:00:28.384Z,2112.00
2019-02-27T09:01:28.374Z,2116.00
2019-02-27T09:02:29.397Z,2128.00
2019-02-27T09:03:28.379Z,2132.00
2019-02-27T09:04:28.393Z,2140.00
2019-02-27T09:05:28.338Z,2144.00
2019-02-27T09:06:28.338Z,2152.00
2019-02-27T09:07:28.321Z,2160.00
2019-02-27T09:08:31.387Z,2172.00
2019-02-27T09:09:28.289Z,2176.00
2019-02-27T09:10:30.621Z,2188.00
2019-02-27T09:11:28.295Z,2196.00
2019-02-27T09:12:28.259Z,2200.00
2019-02-27T09:13:28.314Z,2208.00
2019-02-27T09:14:28.239Z,2216.00
2019-02-27T09:15:28.242Z,2220.00
2019-02-27T09:16:28.222Z,2228.00
2019-02-27T09:17:28.439Z,2236.00
2019-02-27T09:20:54.145Z,2256.00
2019-02-27T09:21:53.253Z,2260.00
2019-02-27T09:22:53.247Z,2268.00
2019-02-27T09:23:53.244Z,2272.00
2019-02-27T09:24:53.221Z,2276.00
2019-02-27T09:25:57.266Z,2284.00
2019-02-27T09:26:53.213Z,2288.00
2019-02-27T09:27:53.189Z,2300.00
2019-02-27T09:28:53.230Z,2308.00
2019-02-27T09:29:54.756Z,2316.00
2019-02-27T09:30:53.163Z,2324.00
2019-02-27T09:31:53.146Z,2332.00
2019-02-27T09:32:53.138Z,2340.00
2019-02-27T09:33:53.893Z,2344.00
2019-02-27T09:34:53.285Z,2344.00
2019-02-27T09:36:01.436Z,2352.00
2019-02-27T09:36:53.117Z,2348.00
2019-02-27T09:37:53.102Z,2368.00
2019-02-27T09:38:57.271Z,2384.00
2019-02-27T09:39:53.112Z,2388.00
2019-02-27T09:40:53.133Z,2396.00
2019-02-27T09:42:04.391Z,2408.00
2019-02-27T09:42:53.927Z,2420.00
2019-02-27T09:43:53.057Z,2432.00
2019-02-27T09:44:53.008Z,2440.00
2019-02-27T09:45:52.999Z,2460.00
2019-02-27T09:46:53.167Z,2480.00
2019-02-27T09:47:52.977Z,2504.00
2019-02-27T09:48:52.967Z,2520.00
2019-02-27T09:49:52.967Z,2532.00
2019-02-27T09:50:52.946Z,2548.00
2019-02-27T09:51:56.045Z,2560.00
2019-02-27T09:52:52.925Z,2572.00
2019-02-27T09:53:52.912Z,2584.00
2019-02-27T09:54:54.800Z,2592.00
2019-02-27T09:55:54.273Z,2596.00
2019-02-27T09:56:52.911Z,2600.00
2019-02-27T09:57:52.915Z,2608.00
2019-02-27T09:58:52.865Z,2628.00
2019-02-27T09:59:53.668Z,2632.00
2019-02-27T10:00:52.839Z,2648.00
2019-02-27T10:01:52.831Z,2668.00
2019-02-27T10:02:52.815Z,2680.00
2019-02-27T10:03:55.270Z,2700.00
2019-02-27T10:04:52.833Z,2704.00
2019-02-27T10:05:52.793Z,2720.00
2019-02-27T10:06:52.780Z,2736.00
2019-02-27T10:07:52.783Z,2748.00
2019-02-27T10:08:52.752Z,2764.00
2019-02-27T10:09:52.774Z,2796.00
2019-02-27T10:10:52.730Z,2840.00
2019-02-27T10:11:53.196Z,2872.00
2019-02-27T10:12:52.716Z,2908.00
2019-02-27T10:13:52.707Z,2940.00
2019-02-27T10:14:52.715Z,2980.00
2019-02-27T10:15:52.678Z,3020.00
2019-02-27T10:16:52.671Z,3044.00
2019-02-27T10:17:52.669Z,3080.00
2019-02-27T10:18:55.601Z,3112.00
2019-02-27T10:19:52.675Z,3144.00
2019-02-27T10:20:52.632Z,3168.00
2019-02-27T10:21:52.618Z,3200.00
2019-02-27T10:22:53.220Z,3236.00
2019-02-27T10:23:52.618Z,3264.00
2019-02-27T10:24:52.613Z,3288.00
2019-02-27T10:25:52.587Z,3316.00
2019-02-27T10:26:53.538Z,3352.00
2019-02-27T10:27:52.560Z,3384.00
2019-02-27T10:28:52.541Z,3416.00
2019-02-27T10:29:52.550Z,3432.00
2019-02-27T10:30:52.519Z,3448.00
2019-02-27T10:31:52.507Z,3472.00
2019-02-27T10:32:52.499Z,3488.00
2019-02-27T10:33:52.488Z,3516.00
2019-02-27T10:34:53.552Z,3532.00
2019-02-27T10:35:52.491Z,3540.00
2019-02-27T10:36:52.517Z,3548.00
2019-02-27T10:37:54.421Z,3564.00
2019-02-27T10:38:52.433Z,3596.00
2019-02-27T10:39:52.445Z,3608.00
2019-02-27T10:40:52.413Z,3608.00
2019-02-27T10:41:52.405Z,3632.00
2019-02-27T10:42:52.390Z,3648.00
2019-02-27T10:43:53.916Z,3664.00
2019-02-27T10:44:52.402Z,3692.00
2019-02-27T10:45:52.358Z,3716.00
2019-02-27T10:46:52.358Z,3720.00
2019-02-27T10:47:52.344Z,3728.00
2019-02-27T10:48:52.340Z,3736.00
2019-02-27T10:49:52.329Z,3756.00
2019-02-27T10:50:52.303Z,3780.00
2019-02-27T10:51:52.297Z,3812.00
2019-02-27T10:52:52.282Z,3836.00
2019-02-27T10:53:52.280Z,3852.00
2019-02-27T10:54:52.280Z,3884.00
2019-02-27T10:55:52.253Z,3908.00
2019-02-27T10:56:52.240Z,3936.00
2019-02-27T10:57:52.231Z,3960.00
2019-02-27T10:58:52.220Z,3976.00
2019-02-27T10:59:52.288Z,4000.00
2019-02-27T11:00:52.198Z,4024.00
2019-02-27T11:01:52.186Z,4040.00
2019-02-27T11:02:52.619Z,4064.00
2019-02-27T11:03:52.164Z,4088.00
2019-02-27T11:04:52.178Z,4100.00
2019-02-27T11:05:55.361Z,4124.00
2019-02-27T11:06:52.168Z,4160.00
2019-02-27T11:07:52.990Z,4180.00
2019-02-27T11:08:52.111Z,4204.00
2019-02-27T11:09:52.108Z,4216.00
2019-02-27T11:10:52.107Z,4236.00
2019-02-27T11:11:53.931Z,4276.00
2019-02-27T11:12:52.115Z,4308.00
2019-02-27T11:13:55.325Z,4340.00
2019-02-27T11:14:52.049Z,4380.00
2019-02-27T11:15:52.057Z,4420.00
2019-02-27T11:16:52.029Z,4476.00
2019-02-27T11:17:52.051Z,4532.00
2019-02-27T11:18:52.007Z,4564.00
2019-02-27T11:19:51.996Z,4592.00
2019-02-27T11:20:52.005Z,4636.00
2019-02-27T11:21:51.971Z,4664.00
2019-02-27T11:22:51.963Z,4712.00
2019-02-27T11:23:51.956Z,4760.00
2019-02-27T11:24:52.523Z,4796.00
2019-02-27T11:25:56.698Z,4840.00
2019-02-27T11:26:51.922Z,4888.00
2019-02-27T11:27:51.907Z,4920.00
2019-02-27T11:28:51.899Z,4960.00
2019-02-27T11:29:51.905Z,5024.00
2019-02-27T11:30:51.894Z,5044.00
2019-02-27T11:31:51.867Z,5124.00
2019-02-27T11:32:56.785Z,5208.00
2019-02-27T11:33:52.848Z,5292.00
2019-02-27T11:34:51.832Z,5364.00
2019-02-27T11:35:51.840Z,5432.00
2019-02-27T11:36:51.845Z,5496.00
2019-02-27T11:37:51.827Z,5560.00
2019-02-27T11:38:51.798Z,5624.00
2019-02-27T11:39:51.778Z,5708.00
2019-02-27T11:40:51.784Z,5804.00
2019-02-27T11:41:51.761Z,5904.00
2019-02-27T11:42:51.747Z,6024.00
2019-02-27T11:43:52.736Z,6148.00
2019-02-27T11:44:51.739Z,6256.00
2019-02-27T11:45:51.729Z,6372.00
2019-02-27T11:46:58.688Z,6504.00
2019-02-27T11:47:52.697Z,6664.00
2019-02-27T11:48:51.695Z,6836.00
2019-02-27T11:49:51.691Z,6992.00
2019-02-27T11:50:51.683Z,7168.00
2019-02-27T11:51:53.222Z,7364.00
2019-02-27T11:52:51.651Z,7580.00
2019-02-27T11:53:51.629Z,7832.00
2019-02-27T11:54:51.618Z,8108.00
2019-02-27T11:55:51.617Z,8412.00
2019-02-27T11:56:56.095Z,8752.00
2019-02-27T11:57:52.590Z,9160.00
2019-02-27T11:58:51.575Z,9612.00
2019-02-27T11:59:51.568Z,10116.00
2019-02-27T12:00:51.578Z,10688.00
2019-02-27T12:01:55.354Z,11380.00
2019-02-27T12:02:51.531Z,12256.00
2019-02-27T12:03:51.531Z,13272.00
2019-02-27T12:04:55.281Z,14580.00
2019-02-27T12:05:52.509Z,16320.00
2019-02-27T12:06:51.487Z,17824.00
2019-02-27T12:07:51.918Z,19232.00
2019-02-27T12:08:51.466Z,28224.00
2019-02-27T12:09:51.455Z,61024.00
2019-02-27T12:10:51.456Z,75648.00
2019-02-27T12:11:51.437Z,76960.00
2019-02-27T12:12:51.423Z,78048.00
2019-02-27T12:13:51.414Z,81536.00
2019-02-27T12:14:51.408Z,80320.00
2019-02-27T12:15:51.406Z,80800.00
2019-02-27T12:16:51.801Z,80800.00
2019-02-27T12:17:51.378Z,81664.00
2019-02-27T12:18:51.360Z,82624.00
2019-02-27T12:19:51.348Z,83968.00
2019-02-27T12:20:53.947Z,85024.00
2019-02-27T12:21:51.327Z,85024.00
2019-02-27T12:22:51.318Z,84864.00
2019-02-27T12:23:51.307Z,84160.00
2019-02-27T12:24:52.914Z,83008.00
2019-02-27T12:25:51.290Z,82400.00
2019-02-27T12:26:51.289Z,83392.00
2019-02-27T12:27:51.265Z,86432.00
2019-02-27T12:28:52.715Z,91040.00
2019-02-27T12:29:51.261Z,92768.00
2019-02-27T12:30:51.264Z,94688.00
2019-02-27T12:31:51.236Z,94912.00
2019-02-27T12:32:55.703Z,96096.00
2019-02-27T12:33:52.204Z,96768.00
2019-02-27T12:34:51.196Z,96320.00
2019-02-27T12:35:51.189Z,98112.00
2019-02-27T12:36:52.686Z,96384.00
2019-02-27T12:37:51.176Z,97792.00
2019-02-27T12:38:51.154Z,97536.00
2019-02-27T12:39:51.146Z,96224.00
2019-02-27T12:40:51.136Z,95040.00
2019-02-27T12:41:51.136Z,94144.00
2019-02-27T12:42:51.118Z,93440.00
2019-02-27T12:43:52.720Z,92800.00
2019-02-27T12:44:53.914Z,93536.00
2019-02-27T12:45:51.089Z,94144.00
2019-02-27T12:46:51.128Z,95104.00
2019-02-27T12:47:51.071Z,95872.00
2019-02-27T12:48:51.068Z,96416.00
2019-02-27T12:49:51.598Z,98048.00
2019-02-27T12:50:51.110Z,96864.00
2019-02-27T12:51:51.123Z,93344.00
2019-02-27T12:52:51.032Z,92768.00
2019-02-27T12:53:54.410Z,89312.00
2019-02-27T12:54:51.007Z,87648.00
2019-02-27T12:55:50.997Z,87264.00
2019-02-27T12:56:51.048Z,87776.00
2019-02-27T12:57:52.394Z,89536.00
2019-02-27T12:58:50.972Z,90752.00
2019-02-27T12:59:50.987Z,91936.00
2019-02-27T13:00:50.958Z,93632.00
2019-02-27T13:01:51.806Z,91648.00
2019-02-27T13:02:50.991Z,92096.00
2019-02-27T13:03:51.161Z,91936.00
2019-02-27T13:04:52.651Z,92320.00
2019-02-27T13:05:50.940Z,92800.00
2019-02-27T13:06:50.908Z,93088.00
2019-02-27T13:07:51.164Z,92384.00
2019-02-27T13:08:52.891Z,92960.00
2019-02-27T13:09:50.904Z,92832.00
2019-02-27T13:10:50.962Z,92480.00
2019-02-27T13:11:50.902Z,91424.00
2019-02-27T13:12:51.856Z,90432.00
2019-02-27T13:13:50.898Z,90976.00
2019-02-27T13:14:50.936Z,90144.00
2019-02-27T13:15:50.920Z,88896.00
2019-02-27T13:16:50.905Z,88960.00
2019-02-27T13:17:56.187Z,89952.00
2019-02-27T13:18:51.835Z,90176.00
2019-02-27T13:19:50.858Z,91200.00
2019-02-27T13:20:50.800Z,91264.00
2019-02-27T13:21:52.321Z,92544.00
2019-02-27T13:22:50.795Z,92800.00
2019-02-27T13:23:50.774Z,93952.00
2019-02-27T13:24:50.951Z,95840.00
2019-02-27T13:25:50.771Z,97280.00
2019-02-27T13:26:50.754Z,98624.00
2019-02-27T13:27:50.753Z,101312.00
2019-02-27T13:28:50.735Z,100416.00
2019-02-27T13:29:52.203Z,96640.00
2019-02-27T13:30:50.786Z,92800.00
2019-02-27T13:31:51.505Z,90464.00
2019-02-27T13:32:50.711Z,91584.00
2019-02-27T13:33:50.689Z,92928.00
2019-02-27T13:34:50.684Z,92992.00
2019-02-27T13:35:50.670Z,93152.00
2019-02-27T13:36:50.663Z,91808.00
2019-02-27T13:37:50.669Z,89024.00
2019-02-27T13:38:52.201Z,88768.00
2019-02-27T13:39:50.631Z,89728.00
2019-02-27T13:40:50.621Z,90176.00
2019-02-27T13:41:50.758Z,88928.00
2019-02-27T13:42:53.341Z,86432.00
2019-02-27T13:43:50.600Z,84768.00
2019-02-27T13:44:50.591Z,81728.00
2019-02-27T13:45:50.584Z,79392.00
2019-02-27T13:46:50.579Z,77984.00
2019-02-27T13:47:50.582Z,79808.00
2019-02-27T13:48:50.562Z,79776.00
2019-02-27T13:49:50.553Z,79680.00
2019-02-27T13:50:50.546Z,80160.00
2019-02-27T13:51:50.541Z,79680.00
2019-02-27T13:52:50.809Z,77088.00
2019-02-27T13:53:50.524Z,75776.00
2019-02-27T13:54:50.516Z,76416.00
2019-02-27T13:55:50.509Z,74560.00
2019-02-27T13:56:50.501Z,72704.00
2019-02-27T13:57:50.507Z,73024.00
2019-02-27T13:58:50.488Z,72896.00
2019-02-27T13:59:50.480Z,72416.00
2019-02-27T14:00:53.630Z,70752.00
2019-02-27T14:01:50.472Z,69600.00
2019-02-27T14:02:50.469Z,69376.00
2019-02-27T14:03:50.451Z,70112.00
2019-02-27T14:04:50.450Z,69088.00
2019-02-27T14:05:50.436Z,70112.00
2019-02-27T14:06:50.430Z,73248.00
2019-02-27T14:07:50.439Z,72832.00
2019-02-27T14:08:50.414Z,71360.00
2019-02-27T14:09:50.406Z,70208.00
2019-02-27T14:10:53.248Z,67424.00
2019-02-27T14:11:50.392Z,66240.00
2019-02-27T14:12:50.404Z,65888.00
2019-02-27T14:13:50.379Z,65664.00
2019-02-27T14:14:53.316Z,65056.00
2019-02-27T14:15:50.394Z,63584.00
2019-02-27T14:16:50.354Z,62880.00
2019-02-27T14:17:50.359Z,63456.00
2019-02-27T14:18:50.663Z,62592.00
2019-02-27T14:19:50.333Z,63200.00
2019-02-27T14:20:50.328Z,65312.00
2019-02-27T14:21:50.359Z,66272.00
2019-02-27T14:22:50.321Z,66464.00
2019-02-27T14:23:50.305Z,66336.00
2019-02-27T14:24:51.943Z,66656.00
2019-02-27T14:25:50.289Z,66400.00
2019-02-27T14:26:50.287Z,65792.00
2019-02-27T14:27:50.284Z,65792.00
2019-02-27T14:28:52.261Z,65856.00
2019-02-27T14:29:50.258Z,64832.00
2019-02-27T14:30:50.250Z,63584.00
2019-02-27T14:31:50.246Z,61632.00
2019-02-27T14:32:50.250Z,61664.00
2019-02-27T14:33:51.149Z,61440.00
2019-02-27T14:34:50.218Z,59296.00
2019-02-27T14:35:50.217Z,57536.00
2019-02-27T14:36:50.205Z,56832.00
2019-02-27T14:37:51.151Z,57376.00
2019-02-27T14:38:50.190Z,57856.00
2019-02-27T14:39:50.186Z,56960.00
2019-02-27T14:40:50.170Z,49792.00
2019-02-27T14:41:51.377Z,37184.00
2019-02-27T14:42:53.991Z,33376.00
2019-02-27T14:43:50.150Z,33440.00
2019-02-27T14:44:50.137Z,32736.00
2019-02-27T14:45:50.903Z,39360.00
2019-02-27T14:46:50.122Z,50144.00
2019-02-27T14:47:50.115Z,51008.00
2019-02-27T14:48:52.418Z,49472.00
2019-02-27T14:49:50.097Z,47136.00
2019-02-27T14:50:50.088Z,41888.00
2019-02-27T14:51:50.080Z,36064.00
2019-02-27T14:52:50.184Z,29952.00
2019-02-27T14:53:52.680Z,25344.00
2019-02-27T14:54:50.054Z,25056.00
2019-02-27T14:55:50.046Z,24992.00
2019-02-27T14:56:50.039Z,24512.00
2019-02-27T14:57:51.031Z,23808.00
2019-02-27T14:58:50.040Z,23296.00
2019-02-27T14:59:50.010Z,23040.00
2019-02-27T15:00:50.002Z,22848.00
2019-02-27T15:01:49.995Z,23616.00
2019-02-27T15:02:51.865Z,23008.00
2019-02-27T15:03:49.987Z,21952.00
2019-02-27T15:04:49.970Z,21472.00
2019-02-27T15:05:49.972Z,20704.00
2019-02-27T15:06:51.230Z,20256.00
2019-02-27T15:07:49.948Z,20768.00
2019-02-27T15:08:57.700Z,19136.00
2019-02-27T15:09:50.923Z,16864.00
2019-02-27T15:10:49.924Z,16384.00
2019-02-27T15:11:49.907Z,16064.00
2019-02-27T15:12:53.917Z,15744.00
2019-02-27T15:13:50.906Z,15392.00
2019-02-27T15:14:49.874Z,15008.00
2019-02-27T15:15:49.864Z,14624.00
2019-02-27T15:16:49.933Z,14080.00
2019-02-27T15:17:51.203Z,13620.00
2019-02-27T15:18:49.847Z,13772.00
2019-02-27T15:19:49.833Z,14152.00
2019-02-27T15:20:49.817Z,13320.00
2019-02-27T15:21:49.808Z,12428.00
2019-02-27T15:22:52.537Z,11864.00
2019-02-27T15:23:49.802Z,11524.00
2019-02-27T15:24:49.778Z,11328.00
2019-02-27T15:25:49.770Z,11136.00
2019-02-27T15:26:50.695Z,10952.00
2019-02-27T15:27:49.752Z,10788.00
2019-02-27T15:28:49.756Z,10604.00
2019-02-27T15:29:49.731Z,10440.00
2019-02-27T15:30:49.734Z,10260.00
2019-02-27T15:31:52.224Z,10084.00
2019-02-27T15:32:50.700Z,9916.00
2019-02-27T15:33:49.712Z,9732.00
2019-02-27T15:34:49.681Z,9556.00
2019-02-27T15:35:49.674Z,9360.00
2019-02-27T15:36:49.666Z,9176.00
2019-02-27T15:37:49.654Z,9024.00
2019-02-27T15:38:49.657Z,8860.00
2019-02-27T15:39:52.070Z,8672.00
2019-02-27T15:40:50.629Z,8500.00
2019-02-27T15:41:49.616Z,8336.00
2019-02-27T15:42:49.601Z,8184.00
2019-02-27T15:43:59.701Z,8024.00
2019-02-27T15:44:50.587Z,7876.00
2019-02-27T15:45:49.575Z,7732.00
2019-02-27T15:46:49.574Z,7592.00
2019-02-27T15:47:49.552Z,7440.00
2019-02-27T15:48:49.552Z,7296.00
2019-02-27T15:49:49.534Z,7168.00
2019-02-27T15:50:49.528Z,7040.00
2019-02-27T15:51:49.510Z,6900.00
2019-02-27T15:52:49.501Z,6756.00
2019-02-27T15:53:50.021Z,6616.00
2019-02-27T15:54:49.480Z,6484.00
2019-02-27T15:55:49.473Z,6360.00
2019-02-27T15:56:49.463Z,6252.00
2019-02-27T15:57:53.674Z,6136.00
2019-02-27T15:58:49.451Z,6028.00
2019-02-27T15:59:49.433Z,5912.00
2019-02-27T16:00:52.626Z,5768.00
2019-02-27T16:01:49.410Z,5560.00
2019-02-27T16:02:49.414Z,5256.00
2019-02-27T16:03:49.412Z,4784.00
2019-02-27T16:04:55.142Z,4376.00
2019-02-27T16:05:50.389Z,4184.00
2019-02-27T16:06:51.194Z,3976.00
2019-02-27T16:07:49.713Z,3796.00
2019-02-27T16:08:49.431Z,3676.00
2019-02-27T16:09:49.364Z,3504.00
2019-02-27T16:10:54.940Z,3260.00
2019-02-27T16:11:51.543Z,3024.00
2019-02-27T16:12:49.358Z,2872.00
2019-02-27T16:13:49.370Z,2752.00
2019-02-27T16:14:49.287Z,2636.00
2019-02-27T16:15:49.272Z,2540.00
2019-02-27T16:16:49.256Z,2440.00
2019-02-27T16:17:49.244Z,2344.00
2019-02-27T16:18:49.499Z,2248.00
2019-02-27T16:19:49.237Z,2148.00
2019-02-27T16:20:49.793Z,2044.00
2019-02-27T16:21:49.202Z,1936.00
2019-02-27T16:22:49.191Z,1836.00
2019-02-27T16:23:49.193Z,1752.00
2019-02-27T16:24:49.183Z,1688.00
2019-02-27T16:25:52.914Z,1632.00
2019-02-27T16:26:49.150Z,1576.00
2019-02-27T16:27:49.139Z,1520.00
2019-02-27T16:28:49.634Z,1464.00
2019-02-27T16:29:49.130Z,1412.00
2019-02-27T16:30:49.109Z,1364.00
2019-02-27T16:31:49.099Z,1324.00
2019-02-27T16:32:49.993Z,1276.00
2019-02-27T16:33:49.078Z,1236.00
2019-02-27T16:34:50.362Z,1192.00
2019-02-27T16:35:49.063Z,1152.00
2019-02-27T16:36:49.045Z,1112.00
2019-02-27T16:37:49.037Z,1076.00
2019-02-27T16:38:49.027Z,1040.00
2019-02-27T16:39:49.029Z,1000.00
2019-02-27T16:40:52.010Z,960.00
2019-02-27T16:41:49.021Z,924.00
2019-02-27T16:42:48.982Z,888.00
2019-02-27T16:43:49.131Z,852.00
2019-02-27T16:44:48.976Z,812.00
2019-02-27T16:45:48.956Z,776.00
2019-02-27T16:46:48.940Z,744.00
2019-02-27T16:47:48.932Z,708.00
2019-02-27T16:48:48.918Z,672.00
2019-02-27T16:49:50.457Z,636.00
2019-02-27T16:50:48.910Z,600.00
2019-02-27T16:51:48.888Z,568.00
2019-02-27T16:52:48.877Z,536.00
2019-02-27T16:53:52.366Z,500.00
2019-02-27T16:54:50.669Z,468.00
2019-02-27T16:55:48.845Z,436.00
2019-02-27T16:56:50.882Z,408.00
2019-02-27T16:57:48.824Z,380.00
2019-02-27T16:58:48.814Z,352.00
2019-02-27T16:59:48.814Z,324.00
2019-02-27T17:00:48.791Z,300.00
2019-02-27T17:01:48.782Z,272.00
2019-02-27T17:02:48.772Z,252.00
2019-02-27T17:03:59.265Z,228.00
2019-02-27T17:04:49.760Z,208.00
2019-02-27T17:05:49.804Z,188.00
2019-02-27T17:06:49.204Z,168.00
2019-02-27T17:07:48.720Z,152.00
2019-02-27T17:08:48.709Z,136.00
2019-02-27T17:09:48.710Z,120.00
2019-02-27T17:10:51.612Z,104.00
2019-02-27T17:11:48.678Z,92.00
2019-02-27T17:12:48.667Z,80.00
2019-02-27T17:13:49.433Z,72.00
2019-02-27T17:14:48.854Z,60.00
2019-02-27T17:15:48.634Z,52.00
2019-02-27T17:16:48.623Z,44.00
2019-02-27T17:17:50.551Z,36.00
2019-02-27T17:18:48.601Z,28.00
2019-02-27T17:19:48.602Z,28.00
2019-02-27T17:20:48.585Z,20.00
2019-02-27T17:21:48.569Z,16.00
2019-02-27T17:22:48.563Z,16.00
2019-02-27T17:23:48.547Z,16.00
2019-02-27T17:24:48.557Z,12.00
2019-02-27T17:25:48.526Z,8.00
2019-02-27T17:26:48.525Z,8.00
2019-02-27T17:27:50.935Z,4.00
2019-02-27T17:28:48.772Z,8.00
2019-02-27T17:29:48.494Z,4.00
2019-02-27T17:30:48.476Z,0.00
2019-02-27T17:31:49.517Z,4.00
2019-02-27T17:32:48.453Z,4.00
2019-02-27T17:33:48.441Z,4.00
2019-02-27T17:34:48.444Z,0.00
2019-02-27T17:35:48.419Z,0.00
2019-02-27T17:36:48.414Z,4.00
2019-02-27T17:37:48.399Z,0.00
2019-02-27T17:38:50.453Z,0.00
2019-02-27T17:39:48.422Z,0.00
2019-02-27T17:40:48.372Z,0.00
2019-02-27T17:41:48.355Z,0.00
2019-02-27T17:42:52.998Z,0.00
2019-02-27T17:43:51.562Z,0.00
2019-02-27T17:44:48.323Z,0.00
2019-02-27T17:45:48.315Z,0.00
2019-02-27T17:46:48.307Z,0.00
2019-02-27T17:47:48.290Z,0.00
2019-02-27T17:48:48.279Z,0.00
2019-02-27T17:49:48.268Z,0.00
2019-02-27T17:50:48.263Z,0.00
2019-02-27T17:51:49.588Z,0.00
2019-02-27T17:52:48.919Z,0.00
2019-02-27T17:53:48.224Z,0.00
2019-02-27T17:54:48.216Z,0.00
2019-02-27T17:55:48.206Z,0.00
2019-02-27T17:56:49.976Z,0.00
2019-02-27T17:57:48.207Z,0.00
2019-02-27T17:58:48.173Z,0.00
2019-02-27T17:59:48.165Z,0.00
2019-02-27T18:00:51.068Z,0.00
2019-02-27T18:01:48.141Z,0.00
2019-02-27T18:02:48.132Z,0.00
2019-02-27T18:03:48.120Z,0.00
2019-02-27T18:04:51.948Z,0.00
2019-02-27T18:05:49.099Z,0.00
2019-02-27T18:06:48.089Z,0.00
2019-02-27T18:07:48.084Z,0.00
2019-02-27T18:08:51.584Z,0.00
2019-02-27T18:09:48.054Z,0.00
2019-02-27T18:10:48.047Z,0.00
2019-02-27T18:11:49.440Z,0.00
2019-02-27T18:12:48.023Z,0.00
2019-02-27T18:13:48.013Z,0.00
2019-02-27T18:14:48.000Z,0.00
2019-02-27T18:15:48.003Z,0.00
2019-02-27T18:16:47.979Z,0.00
2019-02-27T18:17:47.968Z,0.00
2019-02-27T18:18:47.956Z,0.00
2019-02-27T18:19:50.262Z,0.00
2019-02-27T18:20:47.939Z,0.00
2019-02-27T18:21:47.926Z,0.00
2019-02-27T18:22:49.578Z,0.00
2019-02-27T18:23:48.052Z,0.00
2019-02-27T18:24:47.902Z,0.00
2019-02-27T18:25:47.928Z,0.00
2019-02-27T18:26:51.135Z,0.00
2019-02-27T18:27:48.135Z,0.00
2019-02-27T18:28:47.848Z,0.00
2019-02-27T18:29:47.845Z,0.00
2019-02-27T18:31:08.825Z,0.00
2019-02-27T18:31:47.820Z,0.00
2019-02-27T18:32:47.821Z,0.00
2019-02-27T18:33:50.169Z,0.00
2019-02-27T18:34:47.811Z,0.00
2019-02-27T18:35:47.847Z,0.00
2019-02-27T18:36:47.765Z,0.00
2019-02-27T18:37:53.276Z,0.00
2019-02-27T18:38:49.359Z,0.00
2019-02-27T18:39:47.731Z,0.00
2019-02-27T18:40:47.733Z,0.00
2019-02-27T18:41:47.710Z,0.00
2019-02-27T18:42:47.711Z,0.00
2019-02-27T18:43:47.698Z,0.00
2019-02-27T18:44:47.692Z,0.00
2019-02-27T18:45:48.206Z,0.00
2019-02-27T18:46:47.661Z,0.00
2019-02-27T18:47:47.644Z,0.00
2019-02-27T18:48:47.638Z,0.00
2019-02-27T18:49:49.089Z,0.00
2019-02-27T18:50:47.630Z,0.00
2019-02-27T18:51:47.616Z,0.00
2019-02-27T18:52:47.592Z,0.00
2019-02-27T18:53:48.512Z,0.00
2019-02-27T18:54:47.618Z,0.00
2019-02-27T18:55:47.558Z,0.00
2019-02-27T18:56:49.463Z,0.00
2019-02-27T18:57:47.700Z,0.00
2019-02-27T18:58:47.527Z,0.00
2019-02-27T18:59:47.515Z,0.00
2019-02-27T19:00:47.510Z,0.00
2019-02-27T19:01:47.529Z,0.00
2019-02-27T19:02:47.484Z,0.00
2019-02-27T19:03:47.473Z,0.00
2019-02-27T19:04:47.463Z,0.00
2019-02-27T19:05:47.451Z,0.00
2019-02-27T19:06:47.453Z,0.00
2019-02-27T19:07:47.436Z,0.00
2019-02-27T19:08:47.425Z,0.00
2019-02-27T19:09:47.408Z,0.00
2019-02-27T19:10:47.396Z,0.00
2019-02-27T19:11:50.894Z,0.00
2019-02-27T19:12:47.379Z,0.00
2019-02-27T19:13:47.367Z,0.00
2019-02-27T19:14:47.352Z,0.00
2019-02-27T19:15:47.350Z,0.00
2019-02-27T19:16:47.353Z,0.00
2019-02-27T19:17:47.321Z,0.00
2019-02-27T19:18:47.312Z,0.00
2019-02-27T19:19:48.975Z,0.00
2019-02-27T19:20:47.298Z,0.00
2019-02-27T19:21:47.288Z,0.00
2019-02-27T19:22:47.266Z,0.00
2019-02-27T19:23:49.529Z,0.00
2019-02-27T19:24:48.247Z,0.00
2019-02-27T19:25:47.244Z,0.00
2019-02-27T19:26:49.408Z,0.00
2019-02-27T19:27:49.835Z,0.00
2019-02-27T19:28:47.211Z,0.00
2019-02-27T19:29:47.196Z,0.00
2019-02-27T19:30:47.189Z,0.00
2019-02-27T19:31:48.313Z,0.00
2019-02-27T19:32:47.170Z,0.00
2019-02-27T19:33:47.153Z,0.00
2019-02-27T19:34:48.043Z,0.00
2019-02-27T19:35:47.130Z,0.00
2019-02-27T19:36:47.121Z,0.00
2019-02-27T19:37:47.121Z,0.00
2019-02-27T19:38:47.540Z,0.00
2019-02-27T19:39:47.086Z,0.00
2019-02-27T19:40:47.075Z,0.00
2019-02-27T19:41:47.072Z,0.00
2019-02-27T19:42:47.659Z,0.00
2019-02-27T19:43:47.046Z,0.00
2019-02-27T19:44:47.040Z,0.00
2019-02-27T19:45:47.048Z,0.00
2019-02-27T19:46:47.882Z,0.00
2019-02-27T19:47:49.676Z,0.00
2019-02-27T19:48:47.994Z,0.00
2019-02-27T19:49:47.003Z,0.00
2019-02-27T19:50:46.977Z,0.00
2019-02-27T19:51:46.962Z,0.00
2019-02-27T19:52:46.955Z,0.00
2019-02-27T19:53:46.933Z,0.00
2019-02-27T19:54:51.746Z,0.00
2019-02-27T19:55:47.911Z,0.00
2019-02-27T19:56:46.903Z,0.00
2019-02-27T19:57:46.906Z,0.00
2019-02-27T19:58:48.279Z,0.00
2019-02-27T19:59:46.882Z,0.00
2019-02-27T20:00:48.753Z,0.00
2019-02-27T20:01:49.147Z,0.00
2019-02-27T20:02:46.869Z,0.00
2019-02-27T20:03:46.923Z,0.00
2019-02-27T20:04:46.820Z,0.00
2019-02-27T20:05:46.806Z,0.00
2019-02-27T20:06:46.807Z,0.00
2019-02-27T20:07:46.799Z,0.00
2019-02-27T20:08:46.775Z,0.00
2019-02-27T20:09:46.763Z,0.00
2019-02-27T20:10:46.750Z,0.00
2019-02-27T20:11:46.741Z,0.00
2019-02-27T20:12:47.759Z,0.00
2019-02-27T20:13:47.720Z,0.00
2019-02-27T20:14:46.708Z,0.00
2019-02-27T20:15:46.705Z,0.00
2019-02-27T20:16:46.689Z,0.00
2019-02-27T20:17:46.691Z,0.00
2019-02-27T20:18:54.593Z,0.00
2019-02-27T20:19:47.659Z,0.00
2019-02-27T20:20:46.645Z,0.00
2019-02-27T20:21:46.633Z,0.00
2019-02-27T20:22:46.633Z,0.00
2019-02-27T20:23:46.613Z,0.00
2019-02-27T20:24:46.620Z,0.00
2019-02-27T20:25:46.591Z,0.00
2019-02-27T20:26:46.643Z,0.00
2019-02-27T20:27:46.587Z,0.00
2019-02-27T20:28:46.568Z,0.00
2019-02-27T20:29:46.547Z,0.00
2019-02-27T20:30:46.544Z,0.00
2019-02-27T20:31:46.529Z,0.00
2019-02-27T20:32:46.529Z,0.00
2019-02-27T20:33:46.507Z,0.00
2019-02-27T20:34:46.661Z,0.00
2019-02-27T20:35:46.488Z,0.00
2019-02-27T20:36:46.471Z,0.00
2019-02-27T20:37:46.476Z,0.00
2019-02-27T20:38:47.459Z,0.00
2019-02-27T20:39:46.441Z,0.00
2019-02-27T20:40:46.430Z,0.00
2019-02-27T20:41:46.432Z,0.00
2019-02-27T20:42:49.470Z,0.00
2019-02-27T20:43:46.396Z,0.00
2019-02-27T20:44:46.399Z,0.00
2019-02-27T20:45:46.382Z,0.00
2019-02-27T20:46:49.471Z,0.00
2019-02-27T20:47:46.371Z,0.00
2019-02-27T20:48:46.350Z,0.00
2019-02-27T20:49:47.881Z,0.00